Time;durP1;ratioP1;P1;durP2;ratioP2;P2;SDS_P1;SDS_P2;PMS_P1;PMS_P2;Temp;Humidity;BMP_temperature;BMP_pressure;BME280_temperature;BME280_humidity;BME280_pressure;Samples;Min_cycle;Max_cycle;Signal;HPM_P1;HPM_P2
2024/01/28 00:00:55;;;;;;;10.23;3.27;;;;;;;0.94;100.00;102986.31;6111530;28;20107;-69
2024/01/28 00:03:51;;;;;;;5.43;2.77;;;;;;;0.88;100.00;102973.38;6115735;28;20031;-70
2024/01/28 00:06:46;;;;;;;17.67;3.03;;;;;;;0.83;100.00;102962.16;6112162;28;20037;-69
2024/01/28 00:09:44;;;;;;;11.13;3.30;;;;;;;0.78;100.00;102961.38;6112800;28;20474;-68
2024/01/28 00:12:39;;;;;;;9.65;3.30;;;;;;;0.71;100.00;102964.97;6109168;28;20029;-68
2024/01/28 00:15:35;;;;;;;11.57;3.37;;;;;;;0.82;100.00;102965.63;6105080;28;20131;-69
2024/01/28 00:18:30;;;;;;;11.57;3.50;;;;;;;0.89;100.00;102959.44;6111332;28;20016;-69
2024/01/28 00:21:26;;;;;;;12.57;3.17;;;;;;;0.91;100.00;102960.25;6112058;28;20391;-69
2024/01/28 00:24:23;;;;;;;14.10;2.97;;;;;;;0.93;100.00;102963.69;6114945;28;20024;-69
2024/01/28 00:27:18;;;;;;;14.98;3.35;;;;;;;0.99;100.00;102958.34;6112571;28;20039;-70
2024/01/28 00:30:14;;;;;;;18.33;3.27;;;;;;;1.11;100.00;102963.31;6110213;28;20379;-69
2024/01/28 00:33:10;;;;;;;10.77;2.77;;;;;;;1.05;100.00;102939.97;6114014;28;20016;-69
2024/01/28 00:36:06;;;;;;;9.63;2.67;;;;;;;1.13;100.00;102943.28;6106498;28;20058;-69
2024/01/28 00:39:02;;;;;;;9.07;2.65;;;;;;;1.12;100.00;102949.38;6107032;28;20024;-69
2024/01/28 00:41:57;;;;;;;9.15;2.63;;;;;;;1.03;100.00;102935.66;6110952;28;20544;-70
2024/01/28 00:44:52;;;;;;;12.00;2.60;;;;;;;1.00;100.00;102951.38;6114367;28;20047;-70
2024/01/28 00:47:48;;;;;;;5.93;2.63;;;;;;;0.93;100.00;102950.63;6110009;28;20075;-69
2024/01/28 00:50:43;;;;;;;9.93;3.33;;;;;;;0.75;100.00;102935.31;6107708;28;20046;-69
2024/01/28 00:53:39;;;;;;;13.97;2.67;;;;;;;0.71;100.00;102927.59;6117657;28;20372;-70
2024/01/28 00:56:34;;;;;;;11.33;2.80;;;;;;;0.71;100.00;102932.81;6107090;28;20282;-70
2024/01/28 00:59:29;;;;;;;17.57;2.67;;;;;;;0.62;100.00;102927.75;6102862;28;20031;-70
2024/01/28 01:02:24;;;;;;;10.53;2.77;;;;;;;0.66;100.00;102932.88;6112722;28;20435;-69
2024/01/28 01:05:20;;;;;;;7.27;2.07;;;;;;;0.61;100.00;102911.22;6116521;28;20085;-70
2024/01/28 01:08:16;;;;;;;11.00;2.30;;;;;;;0.66;100.00;102925.03;6104365;28;20031;-70
2024/01/28 01:11:11;;;;;;;10.48;2.63;;;;;;;0.61;100.00;102908.63;6105086;28;20733;-69
2024/01/28 01:14:06;;;;;;;12.27;2.43;;;;;;;0.71;100.00;102909.31;6104561;28;20052;-69
2024/01/28 01:17:02;;;;;;;9.43;2.50;;;;;;;0.90;100.00;102908.91;6110170;28;20510;-69
2024/01/28 01:19:58;;;;;;;8.93;2.40;;;;;;;1.01;100.00;102912.16;6114777;28;20029;-69
2024/01/28 01:22:54;;;;;;;14.27;2.80;;;;;;;0.88;100.00;102908.09;6118218;28;20090;-69
2024/01/28 01:25:50;;;;;;;13.85;2.80;;;;;;;0.73;100.00;102923.19;6116498;28;20154;-69
2024/01/28 01:28:45;;;;;;;20.03;3.47;;;;;;;0.59;100.00;102934.75;6115807;28;20017;-69
2024/01/28 01:31:40;;;;;;;12.23;2.95;;;;;;;0.52;100.00;102921.81;6118436;28;20029;-69
2024/01/28 01:34:36;;;;;;;10.90;3.47;;;;;;;0.43;100.00;102924.63;6115734;28;20353;-69
2024/01/28 01:37:32;;;;;;;6.93;2.53;;;;;;;0.36;100.00;102913.41;6116546;28;20119;-69
2024/01/28 01:40:27;;;;;;;14.60;3.65;;;;;;;0.24;100.00;102904.94;6106522;28;20108;-69
2024/01/28 01:43:22;;;;;;;12.03;3.43;;;;;;;0.24;100.00;102915.38;6107773;28;20061;-70
2024/01/28 01:46:18;;;;;;;8.07;2.80;;;;;;;0.16;100.00;102917.25;6115293;28;20032;-70
2024/01/28 01:49:14;;;;;;;7.72;2.78;;;;;;;0.12;100.00;102915.56;6114865;28;20017;-70
2024/01/28 01:52:09;;;;;;;13.60;3.38;;;;;;;0.22;100.00;102917.16;6110705;28;20169;-70
2024/01/28 01:55:06;;;;;;;15.10;3.28;;;;;;;0.22;100.00;102922.38;6110723;28;20472;-70
2024/01/28 01:58:02;;;;;;;17.20;3.25;;;;;;;0.23;100.00;102921.47;6116327;28;20029;-70
2024/01/28 02:00:58;;;;;;;16.20;3.30;;;;;;;0.06;100.00;102913.94;6120520;28;20475;-70
2024/01/28 02:03:55;;;;;;;6.78;2.85;;;;;;;0.09;100.00;102911.28;6114736;28;20037;-69
2024/01/28 02:06:50;;;;;;;14.52;4.18;;;;;;;0.22;100.00;102911.94;6116089;28;20043;-70
2024/01/28 02:09:46;;;;;;;17.80;3.33;;;;;;;0.10;100.00;102901.72;6114219;28;20012;-70
2024/01/28 02:12:47;;;;;;;9.03;2.63;;;;;;;0.06;100.00;102907.84;6108815;28;20271;-70
2024/01/28 02:15:42;;;;;;;10.35;2.35;;;;;;;-0.02;100.00;102910.59;6104668;28;20025;-70
2024/01/28 02:18:37;;;;;;;10.73;2.43;;;;;;;-0.29;100.00;102896.25;6117616;28;20456;-70
2024/01/28 02:21:33;;;;;;;12.43;2.80;;;;;;;-0.22;100.00;102897.84;6111090;28;20107;-70
2024/01/28 02:24:28;;;;;;;13.00;2.73;;;;;;;-0.17;100.00;102913.44;6113354;28;20420;-70
2024/01/28 02:27:23;;;;;;;14.70;3.17;;;;;;;-0.24;100.00;102906.59;6116486;28;20009;-71
2024/01/28 02:30:19;;;;;;;9.30;2.83;;;;;;;-0.14;100.00;102911.66;6113984;28;20518;-71
2024/01/28 02:33:14;;;;;;;18.60;2.53;;;;;;;-0.40;100.00;102895.53;6118037;28;20282;-70
2024/01/28 02:36:09;;;;;;;6.97;2.97;;;;;;;-0.39;100.00;102897.28;6117938;28;20028;-71
2024/01/28 02:39:05;;;;;;;12.57;2.63;;;;;;;-0.38;100.00;102911.19;6102395;28;20040;-70
2024/01/28 02:42:00;;;;;;;18.33;2.80;;;;;;;-0.39;100.00;102901.63;6109982;28;20060;-70
2024/01/28 02:44:55;;;;;;;16.23;2.77;;;;;;;-0.38;100.00;102909.41;6111672;28;20033;-71
2024/01/28 02:47:50;;;;;;;9.47;2.57;;;;;;;-0.53;100.00;102894.00;6112200;28;20033;-71
2024/01/28 02:50:46;;;;;;;9.67;2.70;;;;;;;-0.43;100.00;102892.97;6115786;28;20019;-73
2024/01/28 02:53:41;;;;;;;12.93;2.47;;;;;;;-0.48;100.00;102884.38;6117602;28;20033;-71
2024/01/28 02:56:37;;;;;;;8.60;3.03;;;;;;;-0.56;100.00;102877.53;6111362;28;20429;-71
2024/01/28 02:59:32;;;;;;;10.70;2.90;;;;;;;-0.63;100.00;102866.38;6114145;28;20027;-71
2024/01/28 03:02:27;;;;;;;11.73;3.30;;;;;;;-0.73;100.00;102869.97;6115421;28;20108;-71
2024/01/28 03:05:22;;;;;;;19.87;3.50;;;;;;;-0.71;100.00;102874.28;6116939;28;20035;-73
2024/01/28 03:08:18;;;;;;;8.57;2.83;;;;;;;-0.79;100.00;102864.88;6111627;28;20020;-73
2024/01/28 03:11:13;;;;;;;14.40;3.63;;;;;;;-0.81;100.00;102883.09;6113348;28;20021;-71
2024/01/28 03:14:10;;;;;;;13.73;3.60;;;;;;;-0.94;100.00;102865.06;6113725;28;20064;-73
2024/01/28 03:17:05;;;;;;;11.43;2.97;;;;;;;-0.87;100.00;102869.31;6108087;28;20274;-73
2024/01/28 03:20:01;;;;;;;14.63;3.30;;;;;;;-0.95;100.00;102863.34;6113713;28;20033;-72
2024/01/28 03:22:56;;;;;;;9.37;3.10;;;;;;;-0.94;100.00;102865.06;6111417;28;20059;-72
2024/01/28 03:25:51;;;;;;;16.80;3.57;;;;;;;-1.09;100.00;102844.44;6106140;28;20079;-73
2024/01/28 03:28:47;;;;;;;11.23;4.13;;;;;;;-1.08;100.00;102849.63;6110173;28;20399;-73
2024/01/28 03:31:42;;;;;;;19.03;4.20;;;;;;;-1.03;100.00;102854.78;6108637;28;20028;-72
2024/01/28 03:34:37;;;;;;;25.17;5.20;;;;;;;-1.02;100.00;102835.66;6109666;28;20016;-72
2024/01/28 03:37:32;;;;;;;16.53;3.40;;;;;;;-0.97;100.00;102852.94;6109015;28;20024;-72
2024/01/28 03:40:28;;;;;;;16.57;3.70;;;;;;;-1.02;100.00;102849.53;6105543;28;20024;-72
2024/01/28 03:43:23;;;;;;;17.60;3.60;;;;;;;-1.08;100.00;102840.94;6106018;28;20479;-72
2024/01/28 03:46:18;;;;;;;15.93;3.73;;;;;;;-1.03;100.00;102846.97;6115009;28;20068;-72
2024/01/28 03:49:14;;;;;;;11.90;3.03;;;;;;;-1.11;100.00;102861.81;6107602;28;20020;-72
2024/01/28 03:52:09;;;;;;;15.97;3.40;;;;;;;-1.12;100.00;102854.88;6115382;28;20020;-72
2024/01/28 03:55:06;;;;;;;10.17;3.03;;;;;;;-1.07;100.00;102842.66;6103051;28;20039;-70
2024/01/28 03:58:01;;;;;;;10.45;3.47;;;;;;;-1.37;100.00;102842.19;6112938;28;20036;-72
2024/01/28 04:00:57;;;;;;;10.18;3.05;;;;;;;-1.44;100.00;102843.09;6116461;28;20029;-71
2024/01/28 04:03:57;;;;;;;13.10;3.17;;;;;;;-1.53;100.00;102843.22;6112299;28;20523;-71
2024/01/28 04:06:53;;;;;;;10.50;2.67;;;;;;;-1.55;100.00;102838.94;6105946;28;20037;-71
2024/01/28 04:09:48;;;;;;;19.02;4.00;;;;;;;-1.55;100.00;102857.97;6118551;28;20228;-69
2024/01/28 04:12:43;;;;;;;10.10;3.43;;;;;;;-1.71;100.00;102848.59;6114056;28;20456;-71
2024/01/28 04:15:39;;;;;;;10.75;3.60;;;;;;;-1.64;100.00;102834.69;6107112;28;20112;-69
2024/01/28 04:18:34;;;;;;;15.50;3.70;;;;;;;-1.63;100.00;102852.00;6114906;28;20027;-69
2024/01/28 04:21:32;;;;;;;10.97;3.23;;;;;;;-1.55;100.00;102855.38;6118160;28;20040;-69
2024/01/28 04:24:27;;;;;;;13.75;3.65;;;;;;;-1.55;100.00;102844.97;6103735;28;20028;-70
2024/01/28 04:27:22;;;;;;;19.20;4.47;;;;;;;-1.56;100.00;102843.25;6108980;28;20052;-71
2024/01/28 04:30:18;;;;;;;16.93;4.23;;;;;;;-1.60;100.00;102825.94;6110631;28;20060;-69
2024/01/28 04:33:14;;;;;;;10.93;4.30;;;;;;;-1.49;100.00;102823.22;6114823;28;20108;-71
2024/01/28 04:36:09;;;;;;;18.63;5.32;;;;;;;-1.52;100.00;102812.88;6105717;28;20434;-71
2024/01/28 04:39:05;;;;;;;13.90;4.32;;;;;;;-1.54;100.00;102814.63;6106721;28;20042;-69
2024/01/28 04:42:01;;;;;;;13.27;5.13;;;;;;;-1.55;100.00;102813.75;6115207;28;20040;-68
2024/01/28 04:44:57;;;;;;;12.48;4.65;;;;;;;-1.64;100.00;102813.88;6108388;28;20110;-69
2024/01/28 04:47:52;;;;;;;8.80;3.63;;;;;;;-1.71;100.00;102817.41;6108559;28;20020;-69
2024/01/28 04:50:48;;;;;;;9.43;3.60;;;;;;;-1.73;100.00;102832.16;6109875;28;20032;-68
2024/01/28 04:53:43;;;;;;;14.10;3.85;;;;;;;-1.84;100.00;102808.88;6113678;28;20078;-69
2024/01/28 04:56:38;;;;;;;8.43;3.73;;;;;;;-1.86;100.00;102808.03;6105341;28;20375;-70
2024/01/28 04:59:33;;;;;;;11.53;3.53;;;;;;;-1.92;100.00;102817.63;6109079;28;20055;-69
2024/01/28 05:02:29;;;;;;;13.33;4.03;;;;;;;-1.91;100.00;102825.44;6111229;28;20021;-70
2024/01/28 05:05:24;;;;;;;9.00;3.23;;;;;;;-1.92;100.00;102821.09;6110169;28;20032;-70
2024/01/28 05:08:19;;;;;;;10.00;3.60;;;;;;;-1.96;100.00;102801.19;6113809;28;20101;-68
2024/01/28 05:11:15;;;;;;;13.07;4.53;;;;;;;-1.85;100.00;102803.72;6108721;28;20275;-69
2024/01/28 05:14:10;;;;;;;13.57;3.87;;;;;;;-1.84;100.00;102811.47;6113680;28;20267;-69
2024/01/28 05:17:05;;;;;;;14.30;3.53;;;;;;;-1.92;100.00;102802.03;6105729;28;20033;-70
2024/01/28 05:20:02;;;;;;;12.80;3.43;;;;;;;-1.94;100.00;102814.19;6097168;28;20056;-70
2024/01/28 05:22:59;;;;;;;14.93;4.22;;;;;;;-1.96;100.00;102790.81;6107791;28;20047;-72
2024/01/28 05:25:54;;;;;;;12.98;4.28;;;;;;;-1.84;100.00;102806.28;6101636;28;20060;-69
2024/01/28 05:28:50;;;;;;;11.73;3.47;;;;;;;-1.88;100.00;102806.34;6109389;28;20372;-70
2024/01/28 05:31:45;;;;;;;17.87;4.40;;;;;;;-1.77;100.00;102812.28;6110755;28;20096;-69
2024/01/28 05:34:40;;;;;;;11.47;4.10;;;;;;;-1.72;100.00;102805.31;6111839;28;20482;-69
2024/01/28 05:37:40;;;;;;;6.57;2.93;;;;;;;-1.68;100.00;102803.50;6097224;28;20036;-70
2024/01/28 05:40:36;;;;;;;18.58;4.82;;;;;;;-1.63;100.00;102805.19;6105927;28;20017;-70
2024/01/28 05:43:31;;;;;;;9.07;4.27;;;;;;;-1.67;100.00;102797.44;6102759;28;20532;-72
2024/01/28 05:46:26;;;;;;;11.30;4.40;;;;;;;-1.67;100.00;102806.09;6103615;28;20020;-69
2024/01/28 05:49:21;;;;;;;15.40;4.00;;;;;;;-1.79;100.00;102793.22;6112572;28;20595;-70
2024/01/28 05:52:17;;;;;;;14.13;3.67;;;;;;;-1.79;100.00;102788.03;6107101;28;20040;-70
2024/01/28 05:55:12;;;;;;;13.67;4.33;;;;;;;-1.84;100.00;102789.81;6113848;28;20030;-70
2024/01/28 05:58:07;;;;;;;12.57;4.70;;;;;;;-1.88;100.00;102798.53;6109516;28;20122;-69
2024/01/28 06:01:06;;;;;;;19.17;5.23;;;;;;;-1.93;100.00;102811.56;6112592;28;20064;-69
2024/01/28 06:04:01;;;;;;;9.10;3.25;;;;;;;-2.11;100.00;102788.38;6115807;28;20079;-70
2024/01/28 06:06:56;;;;;;;14.30;4.63;;;;;;;-2.05;100.00;102790.03;6116956;28;20024;-69
2024/01/28 06:09:52;;;;;;;11.37;4.27;;;;;;;-1.97;100.00;102783.03;6119024;28;20285;-69
2024/01/28 06:12:47;;;;;;;15.23;4.47;;;;;;;-1.85;100.00;102796.75;6108282;28;20416;-69
2024/01/28 06:15:42;;;;;;;12.53;4.73;;;;;;;-1.90;100.00;102800.28;6115711;28;20040;-69
2024/01/28 06:18:43;;;;;;;12.57;5.00;;;;;;;-1.90;100.00;102805.47;6117154;28;20017;-70
2024/01/28 06:21:38;;;;;;;11.43;3.95;;;;;;;-1.81;100.00;102816.66;6117290;28;20048;-69
2024/01/28 06:24:35;;;;;;;13.73;4.80;;;;;;;-1.85;100.00;102814.13;6106208;28;20100;-69
2024/01/28 06:27:30;;;;;;;14.60;4.40;;;;;;;-1.81;100.00;102821.00;6112212;28;20170;-69
2024/01/28 06:30:27;;;;;;;12.07;4.53;;;;;;;-1.77;100.00;102817.50;6114017;28;20435;-71
2024/01/28 06:33:23;;;;;;;10.73;4.55;;;;;;;-1.86;100.00;102796.78;6109152;28;20062;-69
2024/01/28 06:36:20;;;;;;;11.85;4.90;;;;;;;-1.88;100.00;102788.16;6114845;28;20045;-69
2024/01/28 06:39:15;;;;;;;17.48;3.72;;;;;;;-1.87;100.00;102802.84;6116993;28;20028;-69
2024/01/28 06:42:10;;;;;;;18.40;4.47;;;;;;;-1.89;100.00;102799.41;6116228;28;20474;-69
2024/01/28 06:45:07;;;;;;;12.83;3.97;;;;;;;-1.79;100.00;102803.63;6104335;28;20613;-70
2024/01/28 06:48:03;;;;;;;15.43;3.90;;;;;;;-1.77;100.00;102811.44;6105858;28;20035;-72
2024/01/28 06:50:58;;;;;;;10.82;3.75;;;;;;;-1.83;100.00;102801.94;6111857;28;20037;-72
2024/01/28 06:53:54;;;;;;;14.37;4.17;;;;;;;-1.73;100.00;102813.09;6109465;28;20114;-71
2024/01/28 06:56:49;;;;;;;14.63;4.77;;;;;;;-1.71;100.00;102816.56;6115075;28;20285;-72
2024/01/28 06:59:44;;;;;;;13.25;3.92;;;;;;;-1.80;100.00;102799.31;6111966;28;20013;-72
2024/01/28 07:02:40;;;;;;;11.57;3.72;;;;;;;-1.79;100.00;102803.63;6116727;28;20028;-72
2024/01/28 07:05:35;;;;;;;15.38;3.67;;;;;;;-1.78;100.00;102794.97;6110643;28;20114;-72
2024/01/28 07:08:31;;;;;;;10.10;3.50;;;;;;;-1.86;100.00;102802.84;6109234;28;20016;-70
2024/01/28 07:11:26;;;;;;;15.57;4.23;;;;;;;-1.93;100.00;102790.78;6100873;28;20023;-70
2024/01/28 07:14:22;;;;;;;13.40;3.63;;;;;;;-1.89;100.00;102807.22;6107967;28;20033;-70
2024/01/28 07:17:17;;;;;;;6.88;3.15;;;;;;;-1.97;100.00;102794.28;6109339;28;20471;-70
2024/01/28 07:20:14;;;;;;;9.80;3.80;;;;;;;-1.90;100.00;102793.34;6111680;28;20021;-70
2024/01/28 07:23:09;;;;;;;10.93;4.18;;;;;;;-1.93;100.00;102780.38;6109671;28;20021;-70
2024/01/28 07:26:07;;;;;;;10.07;3.77;;;;;;;-1.89;100.00;102776.00;6109165;28;20045;-70
2024/01/28 07:29:03;;;;;;;17.90;4.15;;;;;;;-1.91;100.00;102782.97;6101948;28;20045;-71
2024/01/28 07:31:58;;;;;;;13.93;4.20;;;;;;;-1.96;100.00;102762.22;6109811;28;20372;-71
2024/01/28 07:34:54;;;;;;;18.93;3.37;;;;;;;-1.90;100.00;102769.09;6110863;28;20037;-71
2024/01/28 07:37:49;;;;;;;14.77;4.70;;;;;;;-1.78;100.00;102773.28;6109654;28;20028;-71
2024/01/28 07:40:46;;;;;;;14.13;4.28;;;;;;;-1.71;100.00;102774.97;6112087;28;20028;-71
2024/01/28 07:43:42;;;;;;;18.23;4.30;;;;;;;-1.71;100.00;102759.38;6101086;28;20021;-72
2024/01/28 07:46:37;;;;;;;12.05;3.97;;;;;;;-1.56;100.00;102778.25;6105959;28;20104;-72
2024/01/28 07:49:33;;;;;;;10.80;4.03;;;;;;;-1.54;100.00;102768.66;6114428;28;20110;-73
2024/01/28 07:52:28;;;;;;;18.27;5.60;;;;;;;-1.43;100.00;102771.13;6101902;28;20211;-73
2024/01/28 07:55:23;;;;;;;10.33;5.07;;;;;;;-1.36;100.00;102763.22;6100452;28;20110;-74
2024/01/28 07:58:19;;;;;;;15.07;4.45;;;;;;;-1.32;100.00;102746.72;6116806;28;20741;-73
2024/01/28 08:01:14;;;;;;;16.50;5.07;;;;;;;-1.17;100.00;102747.38;6099912;28;20029;-73
2024/01/28 08:04:10;;;;;;;13.90;6.20;;;;;;;-1.03;100.00;102761.06;6110711;28;20279;-73
2024/01/28 08:07:05;;;;;;;19.60;6.93;;;;;;;-1.03;100.00;102750.66;6104295;28;20036;-73
2024/01/28 08:10:01;;;;;;;19.03;5.03;;;;;;;-0.91;100.00;102750.47;6112457;28;20283;-73
2024/01/28 08:12:57;;;;;;;11.40;4.18;;;;;;;-0.87;100.00;102747.78;6105170;28;20349;-74
2024/01/28 08:15:54;;;;;;;12.88;4.90;;;;;;;-0.72;100.00;102746.69;6104199;28;20081;-73
2024/01/28 08:18:50;;;;;;;12.38;5.22;;;;;;;-0.62;100.00;102738.69;6108877;28;20036;-73
2024/01/28 08:21:45;;;;;;;13.53;4.77;;;;;;;-0.43;100.00;102726.22;6098969;28;20025;-73
2024/01/28 08:24:41;;;;;;;14.02;4.90;;;;;;;-0.23;100.00;102744.09;6096759;28;20332;-73
2024/01/28 08:27:36;;;;;;;16.00;5.53;;;;;;;0.00;100.00;102748.00;6103501;28;20095;-72
2024/01/28 08:30:31;;;;;;;18.87;4.73;;;;;;;0.17;100.00;102741.59;6096440;28;20168;-72
2024/01/28 08:33:27;;;;;;;20.60;5.55;;;;;;;0.31;100.00;102740.44;6099145;28;20040;-71
2024/01/28 08:36:22;;;;;;;21.15;5.28;;;;;;;0.38;100.00;102731.59;6092347;28;20087;-73
2024/01/28 08:39:18;;;;;;;15.80;4.83;;;;;;;0.52;100.00;102723.47;6098873;28;20036;-72
2024/01/28 08:42:13;;;;;;;18.97;5.37;;;;;;;0.72;100.00;102713.47;6103197;28;20856;-72
2024/01/28 08:45:09;;;;;;;15.02;4.80;;;;;;;0.92;100.00;102723.47;6097953;28;20053;-69
2024/01/28 08:48:05;;;;;;;17.73;5.07;;;;;;;1.03;100.00;102709.25;6109449;28;20051;-72
2024/01/28 08:51:00;;;;;;;13.60;4.25;;;;;;;1.16;100.00;102702.88;6112380;28;20059;-72
2024/01/28 08:53:56;;;;;;;12.73;4.17;;;;;;;1.46;100.00;102716.06;6102913;28;20424;-73
2024/01/28 08:56:51;;;;;;;14.37;5.50;;;;;;;1.54;100.00;102714.97;6109333;28;20271;-71
2024/01/28 08:59:46;;;;;;;14.60;5.22;;;;;;;1.82;100.00;102720.34;6110281;28;20270;-73
2024/01/28 09:02:41;;;;;;;11.67;4.50;;;;;;;1.98;100.00;102703.34;6102710;28;20059;-72
2024/01/28 09:05:37;;;;;;;11.33;4.27;;;;;;;2.18;100.00;102726.31;6103749;28;20013;-72
2024/01/28 09:08:33;;;;;;;15.35;4.07;;;;;;;2.27;100.00;102711.22;6108345;28;20019;-70
2024/01/28 09:11:28;;;;;;;12.38;3.70;;;;;;;2.46;100.00;102719.38;6100620;28;20024;-70
2024/01/28 09:14:23;;;;;;;24.70;4.40;;;;;;;2.60;100.00;102712.00;6101909;28;20037;-71
2024/01/28 09:17:19;;;;;;;13.70;3.60;;;;;;;2.76;100.00;102721.09;6103015;28;20037;-70
2024/01/28 09:20:14;;;;;;;12.60;4.17;;;;;;;2.73;100.00;102707.22;6088860;28;20033;-72
2024/01/28 09:23:09;;;;;;;6.63;3.00;;;;;;;2.71;100.00;102703.81;6101848;28;20100;-71
2024/01/28 09:26:05;;;;;;;9.37;3.60;;;;;;;2.67;100.00;102705.66;6098344;28;20773;-71
2024/01/28 09:29:01;;;;;;;12.35;3.25;;;;;;;2.70;100.00;102718.66;6118649;28;20162;-71
2024/01/28 09:31:56;;;;;;;13.73;2.73;;;;;;;2.86;100.00;102719.03;6104907;28;20033;-71
2024/01/28 09:34:51;;;;;;;11.10;3.53;;;;;;;2.73;100.00;102722.94;6105379;28;20259;-71
2024/01/28 09:37:48;;;;;;;12.13;3.97;;;;;;;2.88;100.00;102727.72;6100863;28;20127;-71
2024/01/28 09:40:43;;;;;;;13.13;3.13;;;;;;;2.83;100.00;102729.59;6098457;28;20266;-71
2024/01/28 09:43:39;;;;;;;15.63;4.60;;;;;;;2.78;100.00;102715.78;6106629;28;20024;-71
2024/01/28 09:46:36;;;;;;;11.15;4.15;;;;;;;2.87;100.00;102726.00;6099525;28;20286;-72
2024/01/28 09:49:39;;;;;;;11.60;3.83;;;;;;;3.04;100.00;102734.19;6099999;28;20115;-70
2024/01/28 09:52:34;;;;;;;12.43;3.22;;;;;;;3.31;100.00;102733.31;6099989;28;20062;-71
2024/01/28 09:55:30;;;;;;;10.70;3.40;;;;;;;3.47;100.00;102726.66;6111781;28;20094;-73
2024/01/28 09:58:25;;;;;;;7.47;2.90;;;;;;;3.57;100.00;102741.16;6107236;28;20279;-75
2024/01/28 10:01:24;;;;;;;8.35;2.75;;;;;;;3.68;100.00;102734.69;6102021;28;20287;-75
2024/01/28 10:04:19;;;;;;;9.90;3.58;;;;;;;3.64;100.00;102722.59;6111041;28;20032;-75
2024/01/28 10:07:17;;;;;;;12.00;2.93;;;;;;;3.71;100.00;102703.09;6103933;28;20079;-76
2024/01/28 10:10:13;;;;;;;8.50;3.20;;;;;;;3.71;100.00;102701.34;6102357;28;20422;-75
2024/01/28 10:13:08;;;;;;;14.93;3.30;;;;;;;3.72;100.00;102712.72;6098898;28;20045;-74
2024/01/28 10:16:22;;;;;;;15.57;3.53;;;;;;;3.90;100.00;102699.78;6103916;28;20599;-77
2024/01/28 10:19:18;;;;;;;10.10;3.67;;;;;;;3.84;100.00;102707.00;6100098;28;20059;-73
2024/01/28 10:22:13;;;;;;;12.85;3.78;;;;;;;3.85;100.00;102704.34;6083508;28;20029;-74
2024/01/28 10:25:15;;;;;;;9.20;3.55;;;;;;;4.10;100.00;102689.41;6107017;28;20025;-74
2024/01/28 10:28:11;;;;;;;9.40;3.80;;;;;;;4.54;100.00;102679.88;6101793;28;20028;-74
2024/01/28 10:31:06;;;;;;;9.35;2.70;;;;;;;4.59;100.00;102677.09;6085896;28;20029;-73
2024/01/28 10:34:08;;;;;;;7.20;2.92;;;;;;;4.62;100.00;102677.81;6084888;28;20033;-74
2024/01/28 10:37:04;;;;;;;11.43;3.50;;;;;;;5.01;100.00;102679.78;6092335;28;20033;-75
2024/01/28 10:40:06;;;;;;;16.63;3.72;;;;;;;5.14;100.00;102659.94;6083346;28;20032;-74
2024/01/28 10:43:15;;;;;;;11.60;3.92;;;;;;;5.29;100.00;102649.66;6107070;28;20067;-76
2024/01/28 10:46:13;;;;;;;11.93;3.67;;;;;;;5.43;100.00;102666.63;6082856;28;20037;-75
2024/01/28 10:49:10;;;;;;;9.75;3.55;;;;;;;5.40;100.00;102652.69;6100666;28;20108;-76
2024/01/28 10:52:07;;;;;;;8.43;3.00;;;;;;;5.55;100.00;102652.94;6084213;28;20029;-75
2024/01/28 10:55:04;;;;;;;10.98;3.42;;;;;;;5.57;97.78;102644.06;6105321;28;20029;-75
2024/01/28 10:58:00;;;;;;;10.57;3.35;;;;;;;5.77;97.43;102643.19;6082246;28;20174;-75
2024/01/28 11:00:56;;;;;;;10.85;3.28;;;;;;;5.75;94.62;102642.41;6083213;28;20380;-74
2024/01/28 11:03:54;;;;;;;14.30;3.20;;;;;;;5.91;95.81;102618.00;6084826;28;20048;-74
2024/01/28 11:06:52;;;;;;;8.45;2.65;;;;;;;5.83;94.36;102625.34;6107205;28;20043;-75
2024/01/28 11:10:21;;;;;;;11.13;3.00;;;;;;;5.86;95.03;102620.00;6100403;28;20058;-75
2024/01/28 11:14:00;;;;;;;9.38;2.75;;;;;;;5.73;95.07;102594.25;6102450;28;20041;-76
2024/01/28 11:17:37;;;;;;;14.63;4.15;;;;;;;5.78;93.11;102590.50;6031033;28;20038;-76
2024/01/28 11:20:48;;;;;;;;;;;;;;;;;;;;;
2024/01/28 11:23:51;;;;;;;9.70;3.50;;;;;;;6.15;84.53;102597.56;6042668;28;20556;-76
2024/01/28 11:26:51;;;;;;;8.23;2.65;;;;;;;6.36;85.32;102617.66;6028939;28;20029;-78
2024/01/28 11:29:47;;;;;;;10.05;2.30;;;;;;;6.23;85.43;102611.25;6029133;28;20029;-75
2024/01/28 11:32:56;;;;;;;8.63;2.35;;;;;;;6.02;89.09;102596.44;6101361;28;20100;-75
2024/01/28 11:35:53;;;;;;;10.95;4.40;;;;;;;5.93;89.79;102595.09;6087239;28;20029;-78
2024/01/28 11:38:51;;;;;;;8.55;2.75;;;;;;;6.01;90.58;102601.78;6106182;28;20063;-78
2024/01/28 11:41:46;;;;;;;9.95;2.80;;;;;;;6.01;89.32;102617.59;6108269;28;20079;-75
2024/01/28 11:44:43;;;;;;;8.33;2.60;;;;;;;5.99;88.57;102597.44;6100434;28;20539;-76
2024/01/28 11:47:42;;;;;;;8.73;2.75;;;;;;;5.82;88.19;102592.03;6102709;28;20021;-77
2024/01/28 11:50:43;;;;;;;8.75;2.55;;;;;;;5.73;89.57;102587.22;6112070;28;20042;-77
2024/01/28 11:53:45;;;;;;;10.65;2.70;;;;;;;5.75;88.02;102585.38;6097753;28;20056;-74
2024/01/28 11:56:44;;;;;;;8.52;2.90;;;;;;;5.79;86.13;102594.81;6085533;28;20021;-79
2024/01/28 11:59:40;;;;;;;6.63;2.72;;;;;;;5.71;85.37;102589.03;6082736;28;20036;-78
2024/01/28 12:02:36;;;;;;;6.63;2.27;;;;;;;5.86;84.87;102595.44;6105169;28;20025;-77
2024/01/28 12:05:32;;;;;;;9.68;3.13;;;;;;;5.78;85.34;102587.00;6113182;28;20033;-78
2024/01/28 12:08:28;;;;;;;6.70;2.60;;;;;;;5.83;83.62;102583.25;6117319;28;20052;-79
2024/01/28 12:11:28;;;;;;;10.57;3.40;;;;;;;5.87;84.14;102576.94;6110166;28;20036;-76
2024/01/28 12:14:29;;;;;;;11.65;2.78;;;;;;;5.86;83.32;102556.81;6096458;28;20071;-76
2024/01/28 12:17:28;;;;;;;10.30;3.15;;;;;;;6.07;85.41;102570.75;6110534;28;20380;-75
2024/01/28 12:20:28;;;;;;;15.77;5.38;;;;;;;6.24;85.03;102562.06;6088345;28;20033;-78
2024/01/28 12:23:33;;;;;;;9.52;3.67;;;;;;;6.35;84.47;102562.41;6085816;28;20041;-80
2024/01/28 12:26:43;;;;;;;13.77;5.15;;;;;;;6.26;85.43;102533.84;6090848;28;20028;-77
2024/01/28 12:29:41;;;;;;;11.43;3.58;;;;;;;6.30;85.41;102544.19;6114339;28;20026;-76
2024/01/28 12:32:39;;;;;;;10.05;4.10;;;;;;;6.30;87.24;102538.06;6087134;28;20043;-78
2024/01/28 12:35:35;;;;;;;14.57;3.20;;;;;;;6.42;87.17;102537.44;6084101;28;20102;-77
2024/01/28 12:38:30;;;;;;;8.13;2.40;;;;;;;6.49;84.33;102526.56;6085412;28;20024;-77
2024/01/28 12:41:26;;;;;;;8.77;2.30;;;;;;;6.51;79.66;102516.78;6086904;28;20112;-75
2024/01/28 12:44:23;;;;;;;8.90;3.03;;;;;;;6.42;78.91;102506.69;6077230;28;20061;-75
2024/01/28 12:47:19;;;;;;;7.23;2.30;;;;;;;6.46;79.45;102508.25;6108990;28;20041;-77
2024/01/28 12:50:14;;;;;;;5.47;2.10;;;;;;;6.49;78.98;102520.44;6105848;28;20035;-77
2024/01/28 12:53:10;;;;;;;7.27;2.37;;;;;;;6.45;78.62;102508.31;6106099;28;20044;-75
2024/01/28 12:56:05;;;;;;;7.38;2.65;;;;;;;6.52;78.70;102515.03;6102298;28;20025;-76
2024/01/28 12:59:01;;;;;;;8.88;2.63;;;;;;;6.53;78.55;102495.63;6110757;28;20040;-75
2024/01/28 13:01:56;;;;;;;6.17;1.93;;;;;;;6.76;76.01;102516.44;6114336;28;20078;-78
2024/01/28 13:04:53;;;;;;;7.13;2.00;;;;;;;6.70;75.20;102490.38;6104447;28;20145;-77
2024/01/28 13:07:49;;;;;;;6.57;2.30;;;;;;;6.68;76.11;102505.41;6111763;28;20259;-78
2024/01/28 13:10:44;;;;;;;4.35;1.80;;;;;;;6.57;75.05;102492.78;6108556;28;20072;-77
2024/01/28 13:13:41;;;;;;;6.47;2.08;;;;;;;6.74;75.75;102493.72;6101411;28;20063;-75
2024/01/28 13:16:37;;;;;;;6.85;2.10;;;;;;;6.71;74.25;102500.00;6110418;28;20048;-77
2024/01/28 13:19:32;;;;;;;8.90;2.87;;;;;;;6.75;74.27;102487.50;6111435;28;20028;-78
2024/01/28 13:22:27;;;;;;;8.57;2.30;;;;;;;6.71;75.34;102478.91;6110591;28;20256;-74
2024/01/28 13:25:23;;;;;;;5.73;1.73;;;;;;;6.75;76.63;102480.44;6104086;28;20036;-75
2024/01/28 13:28:18;;;;;;;6.37;2.10;;;;;;;6.78;76.12;102480.28;6106053;28;20439;-78
2024/01/28 13:31:14;;;;;;;8.40;2.20;;;;;;;6.87;75.89;102468.41;6101143;28;20025;-75
2024/01/28 13:34:10;;;;;;;7.60;2.05;;;;;;;6.88;75.18;102463.06;6094373;28;20056;-75